DW8879 Weather Reports


time (UTC)temp
F
wind
direction
speed
knots
gust
knots
rain 1hr
in
rain 24hr
in
rain mn
in
humidity
%
barometer
mb
20260504175024 80 138 1.7 8.7 0.00 0.00 0.00 50 1013.5
20260504174920 79 112 1.7 8.7 0.00 0.00 0.00 51 1013.4
20260504174816 79 348 1.7 8.7 0.00 0.00 0.00 49 1013.5
20260504174713 79 297 1.7 8.7 0.00 0.00 0.00 49 1013.6
20260504174609 79 311 1.7 8.7 0.00 0.00 0.00 49 1013.6
20260504174503 79 229 2.6 8.7 0.00 0.00 0.00 49 1013.6
20260504174400 79 336 2.6 8.7 0.00 0.00 0.00 49 1013.6
20260504174255 79 173 3.5 8.7 0.00 0.00 0.00 49 1013.6
20260504174152 79 202 3.5 8.7 0.00 0.00 0.00 48 1013.6
20260504174049 79 230 3.5 8.7 0.00 0.00 0.00 48 1013.6
20260504173943 79 255 3.5 8.7 0.00 0.00 0.00 47 1013.7
20260504173837 79 150 2.6 8.7 0.00 0.00 0.00 47 1013.7
20260504173734 79 138 2.6 8.7 0.00 0.00 0.00 47 1013.8
20260504173629 79 167 2.6 7.0 0.00 0.00 0.00 46 1013.8
20260504173526 79 138 2.6 7.0 0.00 0.00 0.00 49 1013.8
20260504173420 79 167 1.7 8.7 0.00 0.00 0.00 47 1013.7
20260504173057 79 194 1.7 8.7 0.00 0.00 0.00 50 1013.7
20260504172955 79 114 1.7 8.7 0.00 0.00 0.00 54 1013.8
20260504172849 79 175 1.7 8.7 0.00 0.00 0.00 51 1013.8
20260504172305 79 161 1.7 11.3 0.00 0.00 0.00 50 1013.8
20260504171720 79 210 1.7 11.3 0.00 0.00 0.00 50 1013.9
20260504171617 79 188 1.7 11.3 0.00 0.00 0.00 52 1013.9
20260504171252 79 139 1.7 11.3 0.00 0.00 0.00 53 1014.0
20260504171147 78 198 1.7 11.3 0.00 0.00 0.00 51 1013.9
20260504170821 79 316 1.7 11.3 0.00 0.00 0.00 51 1014.0
20260504170717 79 322 1.7 11.3 0.00 0.00 0.00 51 1013.9
20260504170614 79 333 1.7 11.3 0.00 0.00 0.00 51 1014.0
20260504170507 79 319 1.7 11.3 0.00 0.00 0.00 53 1014.1
20260504160348 76 318 0.9 6.1 0.00 0.00 0.00 59 1014.7
20260504151052 74 298 0.9 4.3 0.00 0.00 0.00 63 1015.2
20260504150946 73 298 0.9 4.3 0.00 0.00 0.00 66 1015.1
20260504150622 73 316 0.9 3.5 0.00 0.00 0.00 64 1015.2
20260504150519 73 123 0.9 3.5 0.00 0.00 0.00 65 1015.2
20260504150416 73 175 0.9 3.5 0.00 0.00 0.00 65 1015.2
20260504150314 73 24 0.9 3.5 0.00 0.00 0.00 64 1015.2
20260504150207 73 89 0.9 3.5 0.00 0.00 0.00 67 1015.2
20260504150106 73 319 0.0 3.5 0.00 0.00 0.00 67 1015.2
20260504141035 68 148 0.9 5.2 0.00 0.00 0.00 70 1015.5
20260504140713 68 187 0.9 5.2 0.00 0.00 0.00 72 1015.6
20260504140349 68 153 0.9 5.2 0.00 0.00 0.00 71 1015.5
20260504140246 68 135 0.9 5.2 0.00 0.00 0.00 73 1015.5
20260504140140 68 121 0.9 5.2 0.00 0.00 0.00 74 1015.6
20260504130608 62 173 0.9 2.6 0.00 0.00 0.00 83 1015.4
20260504130505 62 169 0.9 2.6 0.00 0.00 0.00 82 1015.5
20260504130139 61 173 0.9 2.6 0.00 0.00 0.00 83 1015.4
20260504110626 55 183 0.0 0.0 0.00 0.00 0.00 89 1014.4
20260504110523 55 183 0.0 0.0 0.00 0.00 0.00 89 1014.4
20260504110417 55 183 0.0 0.0 0.00 0.00 0.00 89 1014.4
20260504110315 55 183 0.0 0.0 0.00 0.00 0.00 89 1014.4
20260504110211 55 183 0.0 0.0 0.00 0.00 0.00 88 1014.4
20260504110107 55 183 0.0 0.0 0.00 0.00 0.00 88 1014.4
20260504090120 56 183 0.0 0.0 0.00 0.00 0.00 83 1015.0
20260504081936 56 183 0.0 0.0 0.00 0.00 0.00 81 1014.9
20260504081614 57 183 0.0 0.0 0.00 0.00 0.00 82 1014.9
20260504081512 56 183 0.0 0.0 0.00 0.00 0.00 82 1015.0
20260504081409 56 183 0.0 0.0 0.00 0.00 0.00 82 1014.9
20260504081303 56 183 0.0 0.0 0.00 0.00 0.00 81 1015.0
20260504081159 56 183 0.0 0.0 0.00 0.00 0.00 81 1015.0
20260504081052 56 183 0.0 0.0 0.00 0.00 0.00 81 1015.0
20260504080948 56 183 0.0 0.0 0.00 0.00 0.00 82 1015.0
20260504080845 56 183 0.0 0.0 0.00 0.00 0.00 82 1015.0
20260504080740 56 183 0.0 0.0 0.00 0.00 0.00 82 1015.0
20260504080420 56 183 0.0 0.0 0.00 0.00 0.00 82 1015.1
20260504080316 56 183 0.0 0.0 0.00 0.00 0.00 82 1015.1
20260504080210 56 183 0.0 0.0 0.00 0.00 0.00 82 1015.1
20260504070119 57 183 0.0 0.0 0.00 0.00 0.00 80 1015.6
20260504060224 57 183 0.0 0.0 0.00 0.00 0.00 79 1016.3
20260504060122 57 183 0.0 0.0 0.00 0.00 0.00 78 1016.3
20260504050748 57 183 0.0 0.0 0.00 0.00 0.00 78 1016.4
20260504050646 57 183 0.0 0.0 0.00 0.00 0.00 78 1016.4
20260504050541 57 183 0.0 0.0 0.00 0.00 0.00 78 1016.4
20260504050437 57 183 0.0 0.0 0.00 0.00 0.00 78 1016.4
20260504050332 57 183 0.0 0.0 0.00 0.00 0.00 79 1016.4
20260504050227 57 183 0.0 0.0 0.00 0.00 0.00 79 1016.4
20260504050122 57 183 0.0 0.0 0.00 0.00 0.00 79 1016.4
20260504050016 57 183 0.0 0.0 0.00 0.00 0.00 79 1016.4
20260504045913 57 183 0.0 0.0 0.00 0.00 0.00 79 1016.4
20260504045809 57 183 0.0 0.0 0.00 0.00 0.00 79 1016.5
20260504045707 57 183 0.0 0.0 0.00 0.00 0.00 79 1016.4
20260504045600 57 183 0.0 0.0 0.00 0.00 0.00 79 1016.4
20260504045458 57 183 0.0 0.0 0.00 0.00 0.00 79 1016.4
20260504045351 57 183 0.0 0.0 0.00 0.00 0.00 79 1016.4
20260504045245 57 183 0.0 0.0 0.00 0.00 0.00 79 1016.4
20260504045140 57 183 0.0 0.0 0.00 0.00 0.00 79 1016.4
20260504045033 57 183 0.0 0.0 0.00 0.00 0.00 79 1016.4
20260504044927 57 183 0.0 0.0 0.00 0.00 0.00 79 1016.4
20260504044822 57 183 0.0 0.0 0.00 0.00 0.00 79 1016.4
20260504044716 57 183 0.0 0.0 0.00 0.00 0.00 79 1016.4
20260504044610 57 183 0.0 0.0 0.00 0.00 0.00 79 1016.4
20260504044505 57 183 0.0 0.0 0.00 0.00 0.00 79 1016.4
20260504044359 57 183 0.0 0.0 0.00 0.00 0.00 79 1016.4
20260504044257 57 183 0.0 0.0 0.00 0.00 0.00 79 1016.5
20260504044154 57 183 0.0 0.0 0.00 0.00 0.00 79 1016.5
20260504044047 57 183 0.0 0.0 0.00 0.00 0.00 79 1016.5
20260504043726 57 183 0.0 0.0 0.00 0.00 0.00 79 1016.4
20260504043622 57 183 0.0 0.0 0.00 0.00 0.00 79 1016.5
20260504043515 57 183 0.0 0.0 0.00 0.00 0.00 79 1016.5
20260504043411 57 183 0.0 0.0 0.00 0.00 0.00 79 1016.5
20260504043303 57 183 0.0 0.0 0.00 0.00 0.00 79 1016.5
20260504043157 57 183 0.0 0.0 0.00 0.00 0.00 79 1016.5
20260504043051 57 183 0.0 0.0 0.00 0.00 0.00 79 1016.5
20260504042947 57 183 0.0 0.0 0.00 0.00 0.00 78 1016.4
20260504042840 57 183 0.0 0.0 0.00 0.00 0.00 78 1016.4
20260504042733 57 183 0.0 0.0 0.00 0.00 0.00 78 1016.4
20260504042625 57 183 0.0 0.0 0.00 0.00 0.00 78 1016.4
20260504042521 57 183 0.0 0.0 0.00 0.00 0.00 78 1016.4
20260504042418 57 183 0.0 0.0 0.00 0.00 0.00 79 1016.4
20260504042311 57 183 0.0 0.0 0.00 0.00 0.00 79 1016.4
20260504042209 57 183 0.0 0.0 0.00 0.00 0.00 79 1016.4
20260504042102 57 183 0.0 0.0 0.00 0.00 0.00 79 1016.4
20260504042000 58 183 0.0 0.0 0.00 0.00 0.00 79 1016.4
20260504041855 57 183 0.0 0.0 0.00 0.00 0.00 79 1016.4
20260504041750 58 183 0.0 0.0 0.00 0.00 0.00 79 1016.4
20260504041643 57 183 0.0 0.0 0.00 0.00 0.00 78 1016.4
20260504041540 57 183 0.0 0.0 0.00 0.00 0.00 78 1016.4
20260504041433 57 183 0.0 0.0 0.00 0.00 0.00 78 1016.3
20260504041330 57 183 0.0 0.0 0.00 0.00 0.00 78 1016.3
20260504041226 57 183 0.0 0.0 0.00 0.00 0.00 78 1016.3
20260504041122 57 183 0.0 0.0 0.00 0.00 0.00 78 1016.3
20260504041015 57 183 0.0 0.0 0.00 0.00 0.00 78 1016.3
20260504040912 57 183 0.0 0.0 0.00 0.00 0.00 79 1016.3
20260504040809 57 183 0.0 0.0 0.00 0.00 0.00 78 1016.3
20260504040702 57 183 0.0 0.0 0.00 0.00 0.00 78 1016.3
20260504040557 57 183 0.0 0.0 0.00 0.00 0.00 79 1016.3
20260504040451 57 183 0.0 0.0 0.00 0.00 0.00 79 1016.3
20260504040349 57 183 0.0 0.0 0.00 0.00 0.00 79 1016.3
20260504040027 57 183 0.0 0.0 0.00 0.00 0.00 80 1016.4
20260504035443 57 183 0.0 0.0 0.00 0.00 0.00 79 1016.4
20260504035115 57 183 0.0 0.0 0.00 0.00 0.00 80 1016.5
20260504035009 57 183 0.0 0.0 0.00 0.00 0.00 79 1016.5
20260504034904 57 183 0.0 0.0 0.00 0.00 0.00 79 1016.4
20260504034802 58 183 0.0 0.0 0.00 0.00 0.00 79 1016.4
20260504034656 58 183 0.0 0.0 0.00 0.00 0.00 79 1016.4
20260504034554 58 183 0.0 0.0 0.00 0.00 0.00 79 1016.5
20260504034446 58 183 0.0 0.0 0.00 0.00 0.00 79 1016.5
20260504034344 58 183 0.0 0.0 0.00 0.00 0.00 79 1016.5
20260504034019 58 183 0.0 0.0 0.00 0.00 0.00 79 1016.6
20260504033915 58 183 0.0 0.0 0.00 0.00 0.00 78 1016.6
20260504033551 58 183 0.0 0.0 0.00 0.00 0.00 79 1016.5
20260504033445 58 183 0.0 0.0 0.00 0.00 0.00 79 1016.6
20260504033343 58 183 0.0 0.0 0.00 0.00 0.00 79 1016.6
20260504033241 58 183 0.0 0.0 0.00 0.00 0.00 78 1016.6
20260504033135 58 183 0.0 0.0 0.00 0.00 0.00 78 1016.6
20260504033031 58 183 0.0 0.0 0.00 0.00 0.00 78 1016.6
20260504032925 58 183 0.0 0.0 0.00 0.00 0.00 78 1016.5
20260504032818 58 183 0.0 0.0 0.00 0.00 0.00 78 1016.6
20260504032715 58 183 0.0 0.0 0.00 0.00 0.00 79 1016.6
20260504032610 58 183 0.0 0.0 0.00 0.00 0.00 79 1016.5
20260504032506 58 183 0.0 0.0 0.00 0.00 0.00 78 1016.6
20260504032403 58 183 0.0 0.0 0.00 0.00 0.00 77 1016.5
20260504032301 58 183 0.0 0.0 0.00 0.00 0.00 77 1016.6
20260504032156 58 183 0.0 0.0 0.00 0.00 0.00 77 1016.6
20260504032049 58 183 0.0 0.0 0.00 0.00 0.00 78 1016.6
20260504031502 58 183 0.0 0.0 0.00 0.00 0.00 78 1016.6
20260504031357 58 183 0.0 0.0 0.00 0.00 0.00 78 1016.6
20260504031250 58 183 0.0 0.0 0.00 0.00 0.00 78 1016.7
20260504031144 58 183 0.0 0.0 0.00 0.00 0.00 78 1016.7
20260504031042 58 183 0.0 0.0 0.00 0.00 0.00 78 1016.7
20260504030936 58 183 0.0 0.0 0.00 0.00 0.00 77 1016.7
20260504030831 58 183 0.0 0.0 0.00 0.00 0.00 78 1016.7
20260504030506 58 183 0.0 0.0 0.00 0.00 0.00 77 1016.7
20260504030402 58 183 0.0 0.0 0.00 0.00 0.00 77 1016.8
20260504030256 58 183 0.0 0.0 0.00 0.00 0.00 77 1016.7
20260504030149 58 183 0.0 0.0 0.00 0.00 0.00 77 1016.7
20260504030046 58 183 0.0 0.0 0.00 0.00 0.00 77 1016.8
20260504025721 58 183 0.0 0.0 0.00 0.00 0.00 78 1016.7
20260504025400 58 183 0.0 0.0 0.00 0.00 0.00 78 1016.8
20260504025035 58 183 0.0 0.0 0.00 0.00 0.00 78 1016.7
20260504024710 59 183 0.0 0.0 0.00 0.00 0.00 77 1016.6
20260504024602 59 183 0.0 0.0 0.00 0.00 0.00 76 1016.6
20260504024500 59 183 0.0 0.0 0.00 0.00 0.00 76 1016.6
20260504024356 59 183 0.0 0.0 0.00 0.00 0.00 76 1016.6
20260504024252 59 183 0.0 0.0 0.00 0.00 0.00 75 1016.6
20260504023924 59 183 0.0 0.0 0.00 0.00 0.00 75 1016.6
20260504023817 59 183 0.0 0.0 0.00 0.00 0.00 75 1016.6
20260504023711 59 183 0.0 0.0 0.00 0.00 0.00 75 1016.7
20260504023347 59 183 0.0 0.0 0.00 0.00 0.00 74 1016.7
20260504023243 59 183 0.0 0.0 0.00 0.00 0.00 74 1016.6
20260504023140 59 183 0.0 0.0 0.00 0.00 0.00 74 1016.6
20260504023033 59 183 0.0 0.0 0.00 0.00 0.00 74 1016.6
20260504022927 59 183 0.0 0.0 0.00 0.00 0.00 74 1016.6
20260504022821 59 183 0.0 0.0 0.00 0.00 0.00 74 1016.6
20260504022716 59 183 0.0 0.0 0.00 0.00 0.00 74 1016.6
20260504022612 59 183 0.0 0.0 0.00 0.00 0.00 75 1016.7
20260504022504 59 183 0.0 0.0 0.00 0.00 0.00 74 1016.7
20260504022359 59 183 0.0 0.0 0.00 0.00 0.00 74 1016.6
20260504022255 59 183 0.0 0.0 0.00 0.00 0.00 73 1016.6
20260504022152 59 183 0.0 0.0 0.00 0.00 0.00 73 1016.6
20260504022050 59 183 0.0 0.0 0.00 0.00 0.00 73 1016.6
20260504021945 59 183 0.0 0.0 0.00 0.00 0.00 73 1016.5
20260504021837 59 183 0.0 0.0 0.00 0.00 0.00 73 1016.5
20260504021732 59 183 0.0 0.0 0.00 0.00 0.00 73 1016.6
20260504021150 60 183 0.0 0.0 0.00 0.00 0.00 73 1016.5
20260504021047 60 183 0.0 0.0 0.00 0.00 0.00 72 1016.5
20260504020942 60 183 0.0 0.0 0.00 0.00 0.00 72 1016.5
20260504020837 60 183 0.0 0.0 0.00 0.00 0.00 72 1016.5
20260504020730 60 183 0.0 0.0 0.00 0.00 0.00 72 1016.5
20260504020624 60 183 0.0 0.0 0.00 0.00 0.00 73 1016.5
20260504020518 60 183 0.0 0.0 0.00 0.00 0.00 73 1016.5
20260504020415 60 183 0.0 0.0 0.00 0.00 0.00 73 1016.4
20260504020051 60 183 0.0 0.0 0.00 0.00 0.00 71 1016.5
20260504015943 60 183 0.0 0.0 0.00 0.00 0.00 70 1016.5
20260504015838 60 183 0.0 0.0 0.00 0.00 0.00 70 1016.5
20260504015731 61 183 0.0 0.0 0.00 0.00 0.00 70 1016.4
20260504015627 60 183 0.0 0.0 0.00 0.00 0.00 70 1016.5
20260504015522 61 183 0.0 0.0 0.00 0.00 0.00 70 1016.4
20260504015417 61 183 0.0 0.0 0.00 0.00 0.00 70 1016.4
20260504015311 61 183 0.0 0.0 0.00 0.00 0.00 70 1016.4
20260504015207 61 183 0.0 0.0 0.00 0.00 0.00 70 1016.3
20260504015100 61 183 0.0 0.0 0.00 0.00 0.00 69 1016.4
20260504014734 61 183 0.0 0.0 0.00 0.00 0.00 68 1016.3
20260504014627 61 183 0.0 0.0 0.00 0.00 0.00 68 1016.4
20260504014525 61 183 0.0 0.0 0.00 0.00 0.00 68 1016.3
20260504014418 61 183 0.0 0.0 0.00 0.00 0.00 68 1016.3
20260504014316 61 183 0.0 0.0 0.00 0.00 0.00 68 1016.3
20260504014210 61 183 0.0 0.0 0.00 0.00 0.00 68 1016.3
20260504014105 61 183 0.0 0.0 0.00 0.00 0.00 68 1016.3
20260504013741 62 183 0.0 0.0 0.00 0.00 0.00 68 1016.3
20260504013637 62 183 0.0 0.0 0.00 0.00 0.00 68 1016.3
20260504013531 62 183 0.0 0.0 0.00 0.00 0.00 68 1016.2
20260504013424 62 183 0.0 0.0 0.00 0.00 0.00 68 1016.2
20260504013317 62 183 0.0 0.0 0.00 0.00 0.00 68 1016.2
20260504013211 62 183 0.0 0.0 0.00 0.00 0.00 67 1016.2
20260504012847 62 183 0.0 0.0 0.00 0.00 0.00 66 1016.2
20260504012742 62 183 0.0 0.0 0.00 0.00 0.00 66 1016.1
20260504012635 62 183 0.0 0.0 0.00 0.00 0.00 65 1016.1
20260504012533 62 183 0.0 0.0 0.00 0.00 0.00 65 1016.2
20260504012431 63 183 0.0 0.0 0.00 0.00 0.00 65 1016.1
20260504012325 63 183 0.0 0.0 0.00 0.00 0.00 64 1016.1
20260504012218 63 183 0.0 0.0 0.00 0.00 0.00 65 1016.1
20260504012116 63 183 0.0 0.0 0.00 0.00 0.00 64 1016.1
20260504012009 63 183 0.0 0.0 0.00 0.00 0.00 64 1016.1
20260504011903 63 183 0.0 0.0 0.00 0.00 0.00 63 1016.2
20260504011801 63 183 0.0 0.0 0.00 0.00 0.00 63 1016.1
20260504011655 63 183 0.0 0.0 0.00 0.00 0.00 63 1016.2
20260504011551 63 183 0.0 0.0 0.00 0.00 0.00 63 1016.1
20260504011443 63 183 0.0 0.0 0.00 0.00 0.00 63 1016.2
20260504011339 63 183 0.0 0.0 0.00 0.00 0.00 63 1016.2
20260504011235 63 183 0.0 0.0 0.00 0.00 0.00 63 1016.2
20260504011128 64 183 0.0 0.0 0.00 0.00 0.00 63 1016.2
20260504011022 64 183 0.0 0.0 0.00 0.00 0.00 62 1016.2
20260504010917 64 183 0.0 0.0 0.00 0.00 0.00 62 1016.2
20260504010811 64 183 0.0 0.0 0.00 0.00 0.00 62 1016.2
20260504010705 64 183 0.0 0.0 0.00 0.00 0.00 62 1016.2
20260504010603 64 183 0.0 0.0 0.00 0.00 0.00 63 1016.2
20260504010456 64 183 0.0 0.0 0.00 0.00 0.00 62 1016.3
20260504010354 64 183 0.0 0.0 0.00 0.00 0.00 62 1016.3
20260504010031 65 183 0.0 0.0 0.00 0.00 0.00 61 1016.2
20260504005924 65 183 0.0 0.0 0.00 0.00 0.00 61 1016.2
20260504005557 65 183 0.0 0.0 0.00 0.00 0.00 61 1016.2
20260504005454 65 183 0.0 0.0 0.00 0.00 0.00 60 1016.2
20260504004910 66 183 0.0 0.0 0.00 0.00 0.00 59 1016.2
20260504004806 66 183 0.0 0.0 0.00 0.00 0.00 59 1016.2
20260504004700 66 183 0.0 0.0 0.00 0.00 0.00 59 1016.2
20260504004555 66 183 0.0 0.0 0.00 0.00 0.00 59 1016.2
20260504004452 67 183 0.0 0.0 0.00 0.00 0.00 59 1016.2
20260504004345 67 183 0.0 0.0 0.00 0.00 0.00 58 1016.1
20260504004243 67 183 0.0 0.0 0.00 0.00 0.00 59 1016.2
20260504004140 67 183 0.0 0.0 0.00 0.00 0.00 59 1016.2
20260504004036 67 183 0.0 0.0 0.00 0.00 0.00 59 1016.2
20260504003933 67 183 0.0 0.0 0.00 0.00 0.00 58 1016.2
20260504003831 67 183 0.0 0.0 0.00 0.00 0.00 58 1016.2
20260504003246 68 183 0.0 0.0 0.00 0.00 0.00 59 1016.3
20260504002923 68 183 0.0 0.0 0.00 0.00 0.00 56 1016.3
20260504002821 69 183 0.0 0.0 0.00 0.00 0.00 56 1016.3
20260504002717 69 183 0.0 0.0 0.00 0.00 0.00 55 1016.3
20260504002612 69 183 0.0 0.0 0.00 0.00 0.00 53 1016.2
20260504002510 69 183 0.0 0.0 0.00 0.00 0.00 52 1016.3
20260504002403 69 183 0.0 0.0 0.00 0.00 0.00 53 1016.2
20260504002257 69 183 0.0 0.0 0.00 0.00 0.00 52 1016.2
20260504002150 69 183 0.0 0.0 0.00 0.00 0.00 53 1016.2
20260504002044 69 183 0.0 0.0 0.00 0.00 0.00 52 1016.1
20260504001942 69 183 0.0 0.0 0.00 0.00 0.00 52 1016.1
20260504001402 70 183 0.0 0.0 0.00 0.00 0.00 51 1016.2
20260504001034 70 183 0.0 0.0 0.00 0.00 0.00 49 1016.2
20260504000930 70 183 0.0 0.0 0.00 0.00 0.00 49 1016.2
20260504000824 70 183 0.0 0.0 0.00 0.00 0.00 49 1016.2
20260504000717 70 183 0.0 0.0 0.00 0.00 0.00 49 1016.2
20260504000614 70 183 0.0 0.0 0.00 0.00 0.00 49 1016.2
20260504000511 71 183 0.0 0.0 0.00 0.00 0.00 49 1016.2
20260504000404 71 183 0.0 0.0 0.00 0.00 0.00 48 1016.2
20260504000301 71 183 0.0 0.0 0.00 0.00 0.00 50 1016.2
20260504000158 71 183 0.0 0.0 0.00 0.00 0.00 47 1016.2
20260503235833 71 183 0.0 0.0 0.00 0.00 0.00 47 1016.2
20260503235507 71 183 0.0 0.0 0.00 0.00 0.00 46 1016.3
20260503235404 71 183 0.0 3.5 0.00 0.00 0.00 47 1016.2
20260503235043 71 183 0.0 3.5 0.00 0.00 0.00 47 1016.3
20260503234722 71 187 0.0 3.5 0.00 0.00 0.00 46 1016.3
20260503234618 71 187 0.0 3.5 0.00 0.00 0.00 45 1016.3
20260503234515 71 187 0.0 3.5 0.00 0.00 0.00 45 1016.3
20260503234413 71 187 0.0 3.5 0.00 0.00 0.00 45 1016.4
20260503234051 71 184 0.0 1.7 0.00 0.00 0.00 45 1016.4
20260503233944 71 168 0.0 1.7 0.00 0.00 0.00 45 1016.4
20260503233839 71 134 0.0 1.7 0.00 0.00 0.00 46 1016.5
20260503233732 71 182 0.0 0.9 0.00 0.00 0.00 47 1016.4
20260503233627 71 182 0.0 0.0 0.00 0.00 0.00 47 1016.5
20260503233520 71 182 0.0 0.0 0.00 0.00 0.00 47 1016.4
20260503233201 72 231 0.0 0.0 0.00 0.00 0.00 46 1016.5
20260503233055 72 231 0.0 0.0 0.00 0.00 0.00 45 1016.5
20260503232951 72 231 0.0 3.5 0.00 0.00 0.00 43 1016.5
20260503232847 72 231 0.0 3.5 0.00 0.00 0.00 43 1016.5
20260503232743 72 231 0.9 3.5 0.00 0.00 0.00 44 1016.5
20260503232419 72 205 0.0 3.5 0.00 0.00 0.00 45 1016.6
20260503232053 72 154 0.0 3.5 0.00 0.00 0.00 42 1016.5
20260503231947 72 153 0.0 1.7 0.00 0.00 0.00 44 1016.6
20260503231842 72 167 0.0 0.9 0.00 0.00 0.00 44 1016.6
20260503231257 72 121 0.0 0.9 0.00 0.00 0.00 43 1016.6
20260503231150 72 200 0.0 0.0 0.00 0.00 0.00 43 1016.7
20260503230822 72 149 0.9 6.1 0.00 0.00 0.00 43 1016.7
20260503230720 72 149 0.9 6.1 0.00 0.00 0.00 42 1016.7
20260503230135 72 227 0.9 6.1 0.00 0.00 0.00 42 1016.7
20260503230029 72 116 0.9 6.1 0.00 0.00 0.00 42 1016.7
20260503225926 72 0 0.9 6.1 0.00 0.00 0.00 41 1016.8
20260503225822 72 172 0.9 6.1 0.00 0.00 0.00 42 1016.7
20260503225719 72 155 0.9 6.1 0.00 0.00 0.00 42 1016.8
20260503225614 72 236 0.9 6.1 0.00 0.00 0.00 43 1016.7
20260503225507 72 236 0.9 6.1 0.00 0.00 0.00 42 1016.8
20260503225400 72 327 0.9 6.1 0.00 0.00 0.00 42 1016.8
20260503225032 72 160 0.9 6.1 0.00 0.00 0.00 40 1016.9
20260503224925 72 149 0.9 6.1 0.00 0.00 0.00 40 1016.9
20260503224819 72 104 0.0 0.9 0.00 0.00 0.00 42 1016.9
20260503224715 72 288 0.0 0.9 0.00 0.00 0.00 41 1016.9
20260503224607 72 288 0.0 3.5 0.00 0.00 0.00 42 1016.9
20260503224502 72 288 0.0 3.5 0.00 0.00 0.00 42 1016.9
20260503224358 72 288 0.0 3.5 0.00 0.00 0.00 41 1016.9
20260503224253 72 277 0.0 3.5 0.00 0.00 0.00 41 1016.9
20260503224149 72 265 0.0 3.5 0.00 0.00 0.00 41 1016.9
20260503224047 72 271 0.0 3.5 0.00 0.00 0.00 43 1016.9
20260503223941 72 260 0.0 3.5 0.00 0.00 0.00 42 1016.9
20260503223838 72 141 0.0 3.5 0.00 0.00 0.00 41 1016.9
20260503223513 72 153 0.0 3.5 0.00 0.00 0.00 40 1016.9
20260503223411 72 153 0.0 3.5 0.00 0.00 0.00 40 1016.9
20260503223305 72 210 0.0 3.5 0.00 0.00 0.00 40 1017.0
20260503223200 72 177 0.0 4.3 0.00 0.00 0.00 41 1017.0
20260503223056 72 163 0.0 4.3 0.00 0.00 0.00 41 1017.1
20260503222948 72 131 0.0 4.3 0.00 0.00 0.00 41 1017.0
20260503222841 73 202 0.0 4.3 0.00 0.00 0.00 41 1017.0
20260503222736 72 63 0.0 4.3 0.00 0.00 0.00 41 1017.1
20260503222632 73 56 0.0 4.3 0.00 0.00 0.00 41 1017.1
20260503222525 73 133 0.9 4.3 0.00 0.00 0.00 41 1017.2
20260503222421 73 40 0.9 4.3 0.00 0.00 0.00 40 1017.2
20260503222316 73 333 0.9 4.3 0.00 0.00 0.00 40 1017.1
20260503222212 73 333 0.9 4.3 0.00 0.00 0.00 40 1017.2
20260503222109 73 333 0.9 4.3 0.00 0.00 0.00 39 1017.2
20260503222005 73 304 0.9 4.3 0.00 0.00 0.00 38 1017.2
20260503221858 73 138 0.9 4.3 0.00 0.00 0.00 40 1017.2
20260503221751 73 108 0.9 4.3 0.00 0.00 0.00 40 1017.2
20260503221648 73 145 0.9 4.3 0.00 0.00 0.00 41 1017.2
20260503221541 73 298 0.9 4.3 0.00 0.00 0.00 41 1017.2
20260503221437 73 221 0.0 4.3 0.00 0.00 0.00 39 1017.2
20260503221334 73 198 0.0 4.3 0.00 0.00 0.00 39 1017.3
20260503221231 73 220 0.0 3.5 0.00 0.00 0.00 40 1017.3
20260503221124 73 265 0.0 3.5 0.00 0.00 0.00 41 1017.3
20260503221017 73 265 0.0 4.3 0.00 0.00 0.00 41 1017.3
20260503220914 73 288 0.0 4.3 0.00 0.00 0.00 41 1017.3
20260503220808 73 16 0.0 4.3 0.00 0.00 0.00 42 1017.3
20260503220702 73 208 0.0 4.3 0.00 0.00 0.00 39 1017.3
20260503220558 73 126 0.0 4.3 0.00 0.00 0.00 43 1017.4
20260503220454 73 204 0.0 4.3 0.00 0.00 0.00 41 1017.4
20260503220351 73 204 0.0 4.3 0.00 0.00 0.00 42 1017.4
20260503220028 73 192 0.0 5.2 0.00 0.00 0.00 40 1017.4
20260503215926 73 192 0.0 5.2 0.00 0.00 0.00 40 1017.5
20260503215819 73 226 0.0 5.2 0.00 0.00 0.00 40 1017.4
20260503215714 73 131 0.0 5.2 0.00 0.00 0.00 41 1017.5
20260503215607 73 252 0.0 5.2 0.00 0.00 0.00 41 1017.5
20260503215500 73 252 0.9 5.2 0.00 0.00 0.00 42 1017.5
20260503215357 73 141 0.9 5.2 0.00 0.00 0.00 43 1017.5
20260503214811 73 36 0.9 5.2 0.00 0.00 0.00 41 1017.5
20260503214704 73 192 0.9 5.2 0.00 0.00 0.00 41 1017.5
20260503214559 73 142 0.9 5.2 0.00 0.00 0.00 40 1017.5
20260503214454 73 106 0.9 5.2 0.00 0.00 0.00 41 1017.5
20260503214351 73 105 0.9 5.2 0.00 0.00 0.00 41 1017.6
20260503214247 73 201 0.9 5.2 0.00 0.00 0.00 39 1017.6
20260503214142 73 129 0.9 5.2 0.00 0.00 0.00 40 1017.7
20260503213815 73 221 0.9 5.2 0.00 0.00 0.00 41 1017.7
20260503213707 73 175 0.9 5.2 0.00 0.00 0.00 39 1017.7
20260503213602 73 204 0.9 5.2 0.00 0.00 0.00 38 1017.8
20260503213458 73 149 0.9 5.2 0.00 0.00 0.00 38 1017.8
20260503213355 73 185 0.9 5.2 0.00 0.00 0.00 40 1017.8
20260503213253 73 153 0.0 5.2 0.00 0.00 0.00 40 1017.8
20260503213149 73 290 0.0 5.2 0.00 0.00 0.00 41 1017.8
20260503213043 73 279 0.0 5.2 0.00 0.00 0.00 39 1017.8
20260503212940 73 150 0.0 5.2 0.00 0.00 0.00 42 1017.8
20260503212838 73 156 0.9 5.2 0.00 0.00 0.00 39 1017.8
20260503212733 73 231 0.0 5.2 0.00 0.00 0.00 39 1017.8
20260503212413 73 300 0.0 5.2 0.00 0.00 0.00 40 1017.8
20260503212308 73 355 0.9 5.2 0.00 0.00 0.00 40 1017.8
20260503212204 73 355 0.9 5.2 0.00 0.00 0.00 38 1017.9
20260503212057 73 231 0.9 5.2 0.00 0.00 0.00 39 1017.9
20260503211950 73 225 0.9 5.2 0.00 0.00 0.00 40 1017.9
20260503211842 73 136 0.9 5.2 0.00 0.00 0.00 42 1017.9
20260503211739 73 167 0.9 5.2 0.00 0.00 0.00 39 1018.0
20260503211632 73 286 0.9 5.2 0.00 0.00 0.00 38 1018.0
20260503211527 73 193 0.9 5.2 0.00 0.00 0.00 38 1017.9
20260503210947 73 184 0.9 6.1 0.00 0.00 0.00 40 1018.0
20260503210841 73 200 0.9 6.1 0.00 0.00 0.00 39 1018.1
20260503210738 73 103 0.9 6.1 0.00 0.00 0.00 38 1018.1
20260503210418 73 323 0.9 6.1 0.00 0.00 0.00 38 1018.1
20260503210310 73 348 1.7 6.1 0.00 0.00 0.00 39 1018.1
20260503210205 73 290 1.7 6.1 0.00 0.00 0.00 39 1018.2
20260503210101 73 300 1.7 6.1 0.00 0.00 0.00 41 1018.2
20260503205957 73 291 1.7 6.1 0.00 0.00 0.00 39 1018.2
20260503205852 73 351 1.7 6.1 0.00 0.00 0.00 38 1018.2
20260503205746 73 56 1.7 6.1 0.00 0.00 0.00 40 1018.2
20260503205644 73 121 1.7 6.1 0.00 0.00 0.00 40 1018.2
20260503205536 73 184 1.7 6.1 0.00 0.00 0.00 38 1018.2
20260503205428 73 223 1.7 6.1 0.00 0.00 0.00 39 1018.2
20260503205323 73 117 0.9 6.1 0.00 0.00 0.00 40 1018.3
20260503205217 73 227 0.9 6.1 0.00 0.00 0.00 40 1018.4
20260503205110 73 310 0.9 6.1 0.00 0.00 0.00 38 1018.4
20260503205003 74 171 0.9 6.1 0.00 0.00 0.00 41 1018.4
20260503204900 74 241 0.9 6.1 0.00 0.00 0.00 38 1018.4
20260503204753 74 146 0.9 6.1 0.00 0.00 0.00 38 1018.5
20260503203945 74 92 1.7 6.1 0.00 0.00 0.00 40 1018.5
20260503203842 74 5 1.7 6.1 0.00 0.00 0.00 41 1018.6
20260503203518 74 159 1.7 6.1 0.00 0.00 0.00 39 1018.6
20260503203156 74 154 1.7 5.2 0.00 0.00 0.00 37 1018.6
20260503203050 74 175 1.7 5.2 0.00 0.00 0.00 39 1018.6
20260503202942 74 183 0.9 5.2 0.00 0.00 0.00 37 1018.6
20260503202617 74 319 0.9 2.6 0.00 0.00 0.00 41 1018.7
20260503202509 74 355 0.9 2.6 0.00 0.00 0.00 39 1018.8
20260503202403 74 316 0.0 2.6 0.00 0.00 0.00 38 1018.8
20260503202255 74 308 0.0 2.6 0.00 0.00 0.00 41 1018.8
20260503202153 74 331 0.0 2.6 0.00 0.00 0.00 39 1018.8
20260503202046 74 302 0.0 2.6 0.00 0.00 0.00 38 1018.9
20260503201941 74 307 0.0 2.6 0.00 0.00 0.00 37 1018.9
20260503201617 74 303 0.0 9.6 0.00 0.00 0.00 37 1018.9
20260503201512 74 303 0.0 9.6 0.00 0.00 0.00 38 1019.0
20260503201151 74 255 0.9 9.6 0.00 0.00 0.00 40 1019.0
20260503201045 74 256 0.9 9.6 0.00 0.00 0.00 40 1019.0
20260503200724 73 219 1.7 9.6 0.00 0.00 0.00 43 1019.1
20260503200620 73 304 1.7 9.6 0.00 0.00 0.00 42 1019.1
20260503200517 73 300 1.7 9.6 0.00 0.00 0.00 40 1019.1
20260503195937 73 98 1.7 9.6 0.00 0.00 0.00 39 1019.3
20260503195833 74 143 1.7 6.1 0.00 0.00 0.00 41 1019.3
20260503195731 74 189 0.9 6.1 0.00 0.00 0.00 40 1019.3
20260503195625 74 30 0.9 6.1 0.00 0.00 0.00 39 1019.3
20260503195519 74 132 0.9 6.1 0.00 0.00 0.00 44 1019.4
20260503195416 74 331 0.9 5.2 0.00 0.00 0.00 41 1019.4
20260503195313 74 169 0.9 5.2 0.00 0.00 0.00 40 1019.4
20260503195209 74 306 0.9 5.2 0.00 0.00 0.00 38 1019.4
20260503194843 74 271 0.9 5.2 0.00 0.00 0.00 41 1019.5
20260503194739 74 321 0.9 5.2 0.00 0.00 0.00 41 1019.5
20260503194632 74 117 0.9 5.2 0.00 0.00 0.00 40 1019.5
20260503194526 73 300 0.9 5.2 0.00 0.00 0.00 40 1019.5
20260503194421 73 66 0.9 5.2 0.00 0.00 0.00 40 1019.6
20260503194319 73 312 0.9 5.2 0.00 0.00 0.00 41 1019.6
20260503193958 73 88 1.7 7.8 0.00 0.00 0.00 39 1019.8
20260503193852 73 267 1.7 7.8 0.00 0.00 0.00 42 1019.8
20260503193748 72 5 2.6 7.8 0.00 0.00 0.00 42 1019.8
20260503193207 72 314 2.6 7.8 0.00 0.00 0.00 41 1019.7
20260503193059 72 183 2.6 7.8 0.00 0.00 0.00 40 1019.7
20260503192957 72 172 2.6 7.8 0.00 0.00 0.00 42 1019.8
20260503192850 72 199 2.6 7.8 0.00 0.00 0.00 38 1019.8
20260503192746 72 172 2.6 7.8 0.00 0.00 0.00 39 1019.8
20260503192640 72 35 2.6 7.8 0.00 0.00 0.00 37 1019.9
20260503192537 72 85 2.6 7.8 0.00 0.00 0.00 39 1020.0
20260503192432 72 139 2.6 7.8 0.00 0.00 0.00 38 1020.0
20260503192327 73 171 2.6 7.8 0.00 0.00 0.00 40 1019.9
20260503192224 73 175 1.7 7.8 0.00 0.00 0.00 41 1020.0
20260503191900 73 204 1.7 5.2 0.00 0.00 0.00 41 1020.0
20260503191758 73 117 1.7 5.2 0.00 0.00 0.00 39 1020.0
20260503191652 73 188 1.7 5.2 0.00 0.00 0.00 38 1020.0
20260503191544 73 161 0.9 5.2 0.00 0.00 0.00 41 1020.0
20260503191442 73 133 0.9 5.2 0.00 0.00 0.00 42 1020.0
20260503191337 73 113 0.9 5.2 0.00 0.00 0.00 45 1020.0
20260503191235 73 184 0.9 5.2 0.00 0.00 0.00 41 1020.1
20260503191130 73 113 0.9 5.2 0.00 0.00 0.00 46 1020.1
20260503191025 73 287 0.9 5.2 0.00 0.00 0.00 42 1020.1
20260503190921 73 277 0.9 5.2 0.00 0.00 0.00 40 1020.1
20260503190817 73 149 0.9 5.2 0.00 0.00 0.00 44 1020.1
20260503190713 73 336 0.9 5.2 0.00 0.00 0.00 43 1020.1
20260503190607 73 254 0.9 5.2 0.00 0.00 0.00 44 1020.2
20260503190504 73 293 0.9 5.2 0.00 0.00 0.00 42 1020.2
20260503190357 73 180 0.9 8.7 0.00 0.00 0.00 42 1020.2
20260503190251 72 275 0.9 8.7 0.00 0.00 0.00 44 1020.2
20260503190146 72 342 1.7 8.7 0.00 0.00 0.00 45 1020.2
20260503190043 72 321 1.7 8.7 0.00 0.00 0.00 41 1020.2
20260503185937 72 338 1.7 8.7 0.00 0.00 0.00 42 1020.3
20260503185833 72 128 1.7 8.7 0.00 0.00 0.00 39 1020.3
20260503185730 72 115 1.7 8.7 0.00 0.00 0.00 43 1020.3
20260503185627 72 202 2.6 8.7 0.00 0.00 0.00 42 1020.5
20260503185525 72 76 2.6 8.7 0.00 0.00 0.00 41 1020.4
20260503185418 72 169 2.6 8.7 0.00 0.00 0.00 42 1020.4
20260503185314 72 128 2.6 8.7 0.00 0.00 0.00 44 1020.4
20260503185207 72 237 3.5 8.7 0.00 0.00 0.00 42 1020.4
20260503185100 72 171 3.5 8.7 0.00 0.00 0.00 44 1020.5
20260503184958 72 217 3.5 8.7 0.00 0.00 0.00 41 1020.5
20260503184856 72 173 2.6 8.7 0.00 0.00 0.00 42 1020.5
20260503184751 72 140 2.6 8.7 0.00 0.00 0.00 42 1020.4
20260503184645 72 176 1.7 8.7 0.00 0.00 0.00 43 1020.4
20260503184541 72 178 1.7 8.7 0.00 0.00 0.00 40 1020.5
20260503184436 72 141 1.7 8.7 0.00 0.00 0.00 41 1020.5
20260503183849 72 260 0.9 10.4 0.00 0.00 0.00 45 1020.6
20260503183527 72 309 1.7 10.4 0.00 0.00 0.00 46 1020.7
20260503183203 71 249 1.7 10.4 0.00 0.00 0.00 43 1020.7
20260503183100 71 112 2.6 10.4 0.00 0.00 0.00 45 1020.7
20260503182958 71 279 2.6 10.4 0.00 0.00 0.00 43 1020.7
20260503182853 71 294 2.6 10.4 0.00 0.00 0.00 44 1020.8
20260503182747 71 203 2.6 10.4 0.00 0.00 0.00 41 1020.7
20260503182642 71 63 2.6 10.4 0.00 0.00 0.00 43 1020.7
20260503182538 71 146 2.6 10.4 0.00 0.00 0.00 47 1020.8
20260503182434 71 226 2.6 10.4 0.00 0.00 0.00 46 1020.8
20260503182331 71 192 2.6 10.4 0.00 0.00 0.00 46 1020.9
20260503181742 72 184 1.7 6.1 0.00 0.00 0.00 40 1020.9
20260503181414 72 133 1.7 6.1 0.00 0.00 0.00 44 1021.0
20260503181050 71 311 1.7 7.8 0.00 0.00 0.00 45 1021.1
20260503180944 71 276 1.7 7.8 0.00 0.00 0.00 43 1021.1
20260503180836 71 287 1.7 7.8 0.00 0.00 0.00 48 1021.2
20260503180517 72 198 0.9 7.8 0.00 0.00 0.00 44 1021.2
20260503180154 71 331 1.7 7.8 0.00 0.00 0.00 48 1021.2
20260503180052 71 211 1.7 7.8 0.00 0.00 0.00 46 1021.3
20260503175949 71 308 1.7 7.8 0.00 0.00 0.00 46 1021.2
20260503175846 71 302 1.7 7.8 0.00 0.00 0.00 50 1021.2
20260503175742 71 305 2.6 7.8 0.00 0.00 0.00 49 1021.3
20260503175640 71 302 2.6 7.8 0.00 0.00 0.00 45 1021.3